Time;durP1;ratioP1;P1;durP2;ratioP2;P2;SDS_P1;SDS_P2;PMS_P1;PMS_P2;Temp;Humidity;BMP_temperature;BMP_pressure;BME280_temperature;BME280_humidity;BME280_pressure;Samples;Min_cycle;Max_cycle;Signal;HPM_P1;HPM_P2
2022/12/24 00:00:18;;;;;;;;;1.40;1.00;;;;;;;;5194176;28;8811;-77
2022/12/24 00:02:49;;;;;;;;;6.00;5.40;;;;;;;;5210856;28;8799;-77
2022/12/24 00:05:20;;;;;;;;;1.40;1.40;;;;;;;;5194502;28;8834;-77
2022/12/24 00:07:52;;;;;;;;;4.20;4.20;;;;;;;;5194580;28;8806;-76
2022/12/24 00:10:23;;;;;;;;;1.20;1.20;;;;;;;;5211227;28;8814;-78
2022/12/24 00:13:12;;;;;;;;;4.20;3.40;;;;;;;;5196733;28;8826;-75
2022/12/24 00:15:43;;;;;;;;;2.80;2.80;;;;;;;;5194673;28;8801;-80
2022/12/24 00:18:32;;;;;;;;;2.80;2.80;;;;;;;;5196570;28;8819;-79
2022/12/24 00:21:05;;;;;;;;;1.80;1.80;;;;;;;;5194401;28;9564;-76
2022/12/24 00:23:55;;;;;;;;;2.80;2.80;;;;;;;;5210750;28;8798;-76
2022/12/24 00:26:26;;;;;;;;;0.00;0.00;;;;;;;;5210438;28;8856;-76
2022/12/24 00:28:57;;;;;;;;;1.00;1.00;;;;;;;;5193951;28;8802;-77
2022/12/24 00:31:28;;;;;;;;;1.80;1.80;;;;;;;;5210091;28;8803;-76
2022/12/24 00:33:59;;;;;;;;;2.00;2.00;;;;;;;;5194468;28;8768;-77
2022/12/24 00:36:48;;;;;;;;;2.60;2.00;;;;;;;;5210987;28;8806;-78
2022/12/24 00:39:38;;;;;;;;;4.00;4.00;;;;;;;;5197159;28;8790;-80
2022/12/24 00:42:09;;;;;;;;;4.20;2.60;;;;;;;;5195059;28;8775;-80
2022/12/24 00:44:40;;;;;;;;;1.80;1.80;;;;;;;;5193734;28;8815;-78
2022/12/24 00:47:11;;;;;;;;;2.80;2.80;;;;;;;;5177693;28;8807;-79
2022/12/24 00:49:42;;;;;;;;;6.00;6.00;;;;;;;;5193600;28;8815;-80
2022/12/24 00:52:13;;;;;;;;;3.20;3.20;;;;;;;;5193666;28;8802;-79
2022/12/24 00:55:02;;;;;;;;;7.20;7.20;;;;;;;;5213366;28;8774;-80
2022/12/24 00:57:34;;;;;;;;;3.00;3.00;;;;;;;;5193484;28;8841;-76
2022/12/24 01:00:05;;;;;;;;;3.20;3.20;;;;;;;;5210138;28;8779;-76
2022/12/24 01:02:36;;;;;;;;;6.00;6.00;;;;;;;;5209747;28;8823;-76
2022/12/24 01:05:09;;;;;;;;;3.00;3.00;;;;;;;;5193768;28;8791;-80
2022/12/24 01:07:42;;;;;;;;;4.00;4.00;;;;;;;;5177166;28;8794;-77
2022/12/24 01:10:15;;;;;;;;;4.20;4.20;;;;;;;;5209863;28;8836;-78
2022/12/24 01:12:46;;;;;;;;;6.00;6.00;;;;;;;;5176957;28;8787;-77
2022/12/24 01:15:17;;;;;;;;;3.60;3.60;;;;;;;;5209713;28;8804;-76
2022/12/24 01:18:07;;;;;;;;;5.80;5.80;;;;;;;;5212169;28;8799;-75
2022/12/24 01:20:38;;;;;;;;;6.00;5.60;;;;;;;;5210096;28;8778;-76
2022/12/24 01:23:09;;;;;;;;;4.20;4.20;;;;;;;;5209418;28;8797;-76
2022/12/24 01:26:00;;;;;;;;;3.20;3.20;;;;;;;;5209404;28;8799;-82
2022/12/24 01:28:31;;;;;;;;;4.20;4.20;;;;;;;;5193042;28;8937;-83
2022/12/24 01:31:09;;;;;;;;;4.00;4.00;;;;;;;;5192792;28;8775;-82
2022/12/24 01:33:41;;;;;;;;;5.60;5.60;;;;;;;;5172851;28;8992;-80
2022/12/24 01:36:31;;;;;;;;;6.80;6.80;;;;;;;;5191205;28;8825;-77
2022/12/24 01:39:02;;;;;;;;;13.80;13.80;;;;;;;;5189103;28;8801;-79
2022/12/24 01:44:30;;;;;;;;;3.40;3.40;;;;;;;;5209149;28;8791;-84
2022/12/24 01:47:13;;;;;;;;;5.20;5.20;;;;;;;;5192889;28;9557;-82
2022/12/24 01:49:47;;;;;;;;;8.00;8.00;;;;;;;;5176387;28;8953;-81
2022/12/24 01:52:36;;;;;;;;;6.20;6.20;;;;;;;;5212334;28;8814;-80
2022/12/24 01:55:11;;;;;;;;;5.80;5.80;;;;;;;;5192991;28;8905;-79
2022/12/24 01:58:02;;;;;;;;;11.20;11.20;;;;;;;;5200407;28;8835;-78
2022/12/24 02:00:33;;;;;;;;;6.60;6.60;;;;;;;;5211067;28;8783;-81
2022/12/24 02:03:04;;;;;;;;;6.00;6.00;;;;;;;;5215834;28;8815;-79
2022/12/24 02:05:35;;;;;;;;;8.60;8.60;;;;;;;;5178502;28;10615;-79
2022/12/24 02:08:07;;;;;;;;;5.20;5.00;;;;;;;;5176155;28;8809;-80
2022/12/24 02:10:56;;;;;;;;;7.00;7.00;;;;;;;;5211562;28;9639;-78
2022/12/24 02:13:27;;;;;;;;;5.40;5.40;;;;;;;;5208370;28;8779;-79
2022/12/24 02:16:04;;;;;;;;;6.60;6.00;;;;;;;;5209151;28;8813;-79
2022/12/24 02:18:54;;;;;;;;;6.80;6.80;;;;;;;;5191928;28;8815;-78
2022/12/24 02:21:39;;;;;;;;;6.40;6.00;;;;;;;;5208226;28;8909;-77
2022/12/24 02:24:21;;;;;;;;;9.60;9.60;;;;;;;;5221141;28;8775;-78
2022/12/24 02:27:12;;;;;;;;;8.20;7.40;;;;;;;;5186498;28;8789;-78
2022/12/24 02:29:50;;;;;;;;;5.00;4.80;;;;;;;;5171781;28;8800;-76
2022/12/24 02:32:41;;;;;;;;;13.40;13.20;;;;;;;;5188073;28;8823;-75
2022/12/24 02:35:22;;;;;;;;;3.40;3.40;;;;;;;;5201137;28;9618;-75
2022/12/24 02:37:57;;;;;;;;;13.00;13.00;;;;;;;;5191507;28;9567;-77
2022/12/24 02:40:32;;;;;;;;;8.20;8.20;;;;;;;;5193555;28;8819;-76
2022/12/24 02:43:26;;;;;;;;;7.00;7.00;;;;;;;;5193812;28;8868;-77
2022/12/24 02:45:58;;;;;;;;;6.20;6.20;;;;;;;;5208173;28;8783;-78
2022/12/24 02:48:31;;;;;;;;;7.40;7.40;;;;;;;;5206898;28;8799;-78
2022/12/24 02:51:04;;;;;;;;;3.40;3.40;;;;;;;;5208231;28;8803;-75
2022/12/24 02:53:39;;;;;;;;;7.80;7.80;;;;;;;;5190868;28;8787;-75
2022/12/24 02:56:10;;;;;;;;;27.40;27.20;;;;;;;;5206924;28;8880;-76
2022/12/24 02:59:00;;;;;;;;;6.60;6.60;;;;;;;;5186320;28;8805;-77
2022/12/24 03:01:34;;;;;;;;;8.40;6.80;;;;;;;;5200462;28;8787;-75
2022/12/24 03:04:14;;;;;;;;;2.00;2.00;;;;;;;;5193250;28;8818;-75
2022/12/24 03:06:59;;;;;;;;;6.00;6.00;;;;;;;;5191615;28;8856;-75
2022/12/24 03:09:49;;;;;;;;;6.40;6.40;;;;;;;;5172972;28;8783;-75
2022/12/24 03:12:25;;;;;;;;;15.60;15.60;;;;;;;;5190843;28;8857;-76
2022/12/24 03:14:57;;;;;;;;;9.80;9.60;;;;;;;;5208182;28;8779;-75
2022/12/24 03:17:29;;;;;;;;;5.40;5.40;;;;;;;;5189001;28;8987;-77
2022/12/24 03:20:00;;;;;;;;;6.40;6.40;;;;;;;;5224000;28;8802;-76
2022/12/24 03:22:33;;;;;;;;;5.80;5.80;;;;;;;;5190074;28;8822;-77
2022/12/24 03:25:04;;;;;;;;;2.00;2.00;;;;;;;;5190053;28;8781;-77
2022/12/24 03:27:37;;;;;;;;;10.00;9.00;;;;;;;;5206375;28;9269;-77
2022/12/24 03:30:13;;;;;;;;;9.20;8.40;;;;;;;;5173600;28;8779;-77
2022/12/24 03:32:45;;;;;;;;;6.40;6.40;;;;;;;;5191439;28;8790;-78
2022/12/24 03:35:16;;;;;;;;;9.00;9.00;;;;;;;;5207489;28;8871;-76
2022/12/24 03:37:47;;;;;;;;;7.80;7.40;;;;;;;;5224936;28;9541;-76
2022/12/24 03:40:37;;;;;;;;;7.00;7.00;;;;;;;;5224869;28;8811;-75
2022/12/24 03:43:26;;;;;;;;;2.00;2.00;;;;;;;;5207533;28;8763;-75
2022/12/24 03:45:57;;;;;;;;;18.60;18.60;;;;;;;;5191230;28;8790;-75
2022/12/24 03:48:28;;;;;;;;;10.00;10.00;;;;;;;;5207123;28;8811;-78
2022/12/24 03:51:00;;;;;;;;;6.75;6.75;;;;;;;;5207679;28;8799;-77
2022/12/24 03:53:31;;;;;;;;;8.40;7.00;;;;;;;;5196673;28;11429;-76
2022/12/24 03:56:02;;;;;;;;;5.20;4.60;;;;;;;;5219325;28;8834;-76
2022/12/24 03:58:33;;;;;;;;;6.00;6.00;;;;;;;;5202613;28;8822;-76
2022/12/24 04:01:04;;;;;;;;;5.60;5.60;;;;;;;;5213618;28;8801;-76
2022/12/24 04:03:53;;;;;;;;;7.00;7.00;;;;;;;;5203723;28;9543;-76
2022/12/24 04:06:25;;;;;;;;;7.00;7.00;;;;;;;;5190295;28;9507;-76
2022/12/24 04:08:58;;;;;;;;;9.80;9.80;;;;;;;;5190554;28;8925;-76
2022/12/24 04:11:29;;;;;;;;;7.00;7.00;;;;;;;;5206772;28;8800;-76
2022/12/24 04:14:19;;;;;;;;;7.80;7.80;;;;;;;;5207122;28;9515;-78
2022/12/24 04:16:50;;;;;;;;;7.00;7.00;;;;;;;;5190029;28;8838;-77
2022/12/24 04:19:21;;;;;;;;;6.50;6.50;;;;;;;;5174047;28;9492;-74
2022/12/24 04:21:52;;;;;;;;;7.40;7.40;;;;;;;;5190010;28;11479;-75
2022/12/24 04:24:24;;;;;;;;;9.00;9.00;;;;;;;;5206751;28;8899;-74
2022/12/24 04:26:55;;;;;;;;;8.00;7.00;;;;;;;;5206427;28;8842;-75
2022/12/24 04:29:26;;;;;;;;;6.60;6.60;;;;;;;;5206473;28;8903;-75
2022/12/24 04:31:57;;;;;;;;;8.80;8.80;;;;;;;;5206381;28;8843;-76
2022/12/24 04:34:28;;;;;;;;;10.60;10.40;;;;;;;;5190017;28;8765;-76
2022/12/24 04:36:59;;;;;;;;;9.00;7.40;;;;;;;;5189738;28;8951;-76
2022/12/24 04:39:30;;;;;;;;;6.80;6.80;;;;;;;;5205875;28;8866;-77
2022/12/24 04:42:05;;;;;;;;;9.40;9.40;;;;;;;;5189646;28;8800;-77
2022/12/24 04:44:36;;;;;;;;;7.60;6.40;;;;;;;;5189582;28;8800;-76
2022/12/24 04:47:07;;;;;;;;;11.75;11.00;;;;;;;;5206291;28;8811;-76
2022/12/24 04:49:37;;;;;;;;;8.40;8.40;;;;;;;;5205282;28;11497;-76
2022/12/24 04:52:27;;;;;;;;;14.40;14.00;;;;;;;;5192296;28;8788;-76
2022/12/24 04:54:58;;;;;;;;;10.40;10.20;;;;;;;;5206143;28;8784;-75
2022/12/24 04:57:34;;;;;;;;;8.00;8.00;;;;;;;;5207040;28;8832;-76
2022/12/24 05:00:06;;;;;;;;;13.80;13.80;;;;;;;;5173137;28;10276;-76
2022/12/24 05:02:37;;;;;;;;;10.20;10.20;;;;;;;;5172317;28;9543;-76
2022/12/24 05:05:08;;;;;;;;;15.40;14.80;;;;;;;;5205704;28;8792;-75
2022/12/24 05:07:39;;;;;;;;;13.20;12.80;;;;;;;;5205676;28;8784;-76
2022/12/24 05:10:10;;;;;;;;;12.80;12.80;;;;;;;;5188760;28;8807;-75
2022/12/24 05:12:43;;;;;;;;;13.40;13.40;;;;;;;;5189813;28;8816;-75
2022/12/24 05:15:14;;;;;;;;;10.75;10.75;;;;;;;;5172478;28;8772;-76
2022/12/24 05:17:45;;;;;;;;;24.20;19.00;;;;;;;;5204281;28;10676;-74
2022/12/24 05:20:16;;;;;;;;;16.00;15.75;;;;;;;;5206720;28;8807;-77
2022/12/24 05:28:27;;;;;;;;;9.00;7.80;;;;;;;;5205505;28;9417;-74
2022/12/24 05:30:58;;;;;;;;;12.60;11.60;;;;;;;;5204395;28;8789;-76
2022/12/24 05:33:29;;;;;;;;;11.50;11.50;;;;;;;;5188494;28;8823;-77
2022/12/24 05:36:00;;;;;;;;;14.60;14.60;;;;;;;;5205076;28;10181;-76
2022/12/24 05:38:31;;;;;;;;;8.80;8.80;;;;;;;;5206160;28;9600;-77
2022/12/24 05:41:02;;;;;;;;;11.40;11.40;;;;;;;;5206411;28;8794;-74
2022/12/24 05:43:33;;;;;;;;;10.00;9.40;;;;;;;;5204964;28;8868;-79
2022/12/24 05:46:06;;;;;;;;;9.50;9.50;;;;;;;;5192135;28;8792;-76
2022/12/24 05:48:37;;;;;;;;;13.00;12.60;;;;;;;;5202009;28;10503;-79
2022/12/24 05:51:26;;;;;;;;;11.00;11.00;;;;;;;;5211249;28;9508;-77
2022/12/24 05:53:57;;;;;;;;;13.00;13.00;;;;;;;;5188750;28;8814;-72
2022/12/24 05:56:28;;;;;;;;;11.60;11.60;;;;;;;;5187805;28;8800;-76
2022/12/24 05:58:59;;;;;;;;;13.40;11.20;;;;;;;;5205776;28;8807;-75
2022/12/24 06:01:30;;;;;;;;;14.60;14.40;;;;;;;;5188404;28;8792;-75
2022/12/24 06:04:01;;;;;;;;;14.80;13.00;;;;;;;;5204635;28;8808;-75
2022/12/24 06:06:32;;;;;;;;;11.20;11.20;;;;;;;;5205721;28;8843;-75
2022/12/24 06:09:04;;;;;;;;;14.00;14.00;;;;;;;;5204887;28;8803;-76
2022/12/24 06:11:35;;;;;;;;;17.40;17.20;;;;;;;;5204120;28;8816;-76
2022/12/24 06:14:06;;;;;;;;;13.40;12.80;;;;;;;;5187726;28;8812;-76
2022/12/24 06:16:37;;;;;;;;;6.40;6.40;;;;;;;;5204078;28;8803;-76
2022/12/24 06:19:08;;;;;;;;;8.40;8.40;;;;;;;;5204287;28;8780;-75
2022/12/24 06:21:39;;;;;;;;;9.40;9.40;;;;;;;;5204334;28;8874;-75
2022/12/24 06:24:28;;;;;;;;;6.60;6.60;;;;;;;;5204514;28;8796;-75
2022/12/24 06:26:59;;;;;;;;;35.40;32.60;;;;;;;;5171310;28;8800;-76
2022/12/24 06:29:30;;;;;;;;;6.00;6.00;;;;;;;;5187249;28;8801;-78
2022/12/24 06:32:20;;;;;;;;;7.00;7.00;;;;;;;;5204570;28;9574;-78
2022/12/24 06:34:51;;;;;;;;;7.00;7.00;;;;;;;;5204388;28;8796;-75
2022/12/24 06:37:22;;;;;;;;;7.00;7.00;;;;;;;;5204232;28;8827;-74
2022/12/24 06:39:53;;;;;;;;;5.80;5.80;;;;;;;;5187638;28;8828;-75
2022/12/24 06:42:24;;;;;;;;;5.60;5.60;;;;;;;;5187578;28;8807;-75
2022/12/24 06:44:55;;;;;;;;;6.20;6.00;;;;;;;;5203529;28;8821;-75
2022/12/24 06:47:26;;;;;;;;;5.80;5.80;;;;;;;;5203626;28;8998;-75
2022/12/24 06:49:57;;;;;;;;;8.20;8.20;;;;;;;;5186839;28;8804;-76
2022/12/24 06:52:28;;;;;;;;;13.00;13.00;;;;;;;;5188191;28;8798;-74
2022/12/24 06:55:00;;;;;;;;;26.80;25.20;;;;;;;;5204175;28;8780;-75
2022/12/24 06:57:49;;;;;;;;;44.60;41.40;;;;;;;;5190139;28;9013;-77
2022/12/24 07:00:22;;;;;;;;;14.20;13.80;;;;;;;;5203801;28;8915;-76
2022/12/24 07:02:54;;;;;;;;;11.00;11.00;;;;;;;;5211108;28;8815;-76
2022/12/24 07:05:25;;;;;;;;;8.60;8.60;;;;;;;;5208019;28;8844;-76
2022/12/24 07:07:56;;;;;;;;;10.40;10.40;;;;;;;;5207451;28;8868;-76
2022/12/24 07:10:47;;;;;;;;;11.60;11.60;;;;;;;;5193481;28;9613;-77
2022/12/24 07:13:37;;;;;;;;;12.60;12.60;;;;;;;;5193925;28;8833;-76
2022/12/24 07:16:26;;;;;;;;;17.40;14.00;;;;;;;;5207734;28;8938;-76
2022/12/24 07:18:57;;;;;;;;;16.80;16.80;;;;;;;;5207767;28;8909;-77
2022/12/24 07:21:28;;;;;;;;;21.00;21.00;;;;;;;;5207786;28;8775;-76
2022/12/24 07:23:59;;;;;;;;;21.60;19.40;;;;;;;;5191305;28;8783;-75
2022/12/24 07:26:30;;;;;;;;;24.40;22.80;;;;;;;;5190719;28;8825;-76
2022/12/24 07:29:20;;;;;;;;;22.00;19.80;;;;;;;;5225166;28;8774;-76
2022/12/24 07:31:53;;;;;;;;;25.40;25.20;;;;;;;;5207442;28;8822;-76
2022/12/24 07:34:24;;;;;;;;;28.80;25.40;;;;;;;;5208050;28;8771;-76
2022/12/24 07:36:55;;;;;;;;;19.25;19.00;;;;;;;;5191001;28;8811;-76
2022/12/24 07:39:26;;;;;;;;;19.80;18.80;;;;;;;;5191544;28;11465;-76
2022/12/24 07:41:58;;;;;;;;;14.60;13.80;;;;;;;;5178922;28;8767;-76
2022/12/24 07:44:28;;;;;;;;;15.40;15.40;;;;;;;;5211075;28;8854;-76
2022/12/24 07:46:59;;;;;;;;;25.00;24.40;;;;;;;;5211545;28;8826;-74
2022/12/24 07:49:30;;;;;;;;;22.40;22.00;;;;;;;;5174039;28;8839;-74
2022/12/24 07:52:02;;;;;;;;;31.80;31.60;;;;;;;;5178369;28;8801;-74
2022/12/24 07:54:33;;;;;;;;;24.80;24.40;;;;;;;;5194572;28;8799;-72
2022/12/24 07:57:04;;;;;;;;;23.80;21.80;;;;;;;;5228181;28;9643;-74
2022/12/24 07:59:35;;;;;;;;;21.60;20.40;;;;;;;;5195077;28;8782;-74
2022/12/24 08:02:08;;;;;;;;;28.00;26.60;;;;;;;;5210642;28;9552;-74
2022/12/24 08:04:57;;;;;;;;;19.00;18.60;;;;;;;;5211061;28;8852;-76
2022/12/24 08:07:28;;;;;;;;;19.25;17.50;;;;;;;;5210416;28;8799;-76
2022/12/24 08:09:59;;;;;;;;;15.00;13.25;;;;;;;;5194252;28;10243;-75
2022/12/24 08:12:49;;;;;;;;;27.40;27.00;;;;;;;;5213734;28;9482;-74
2022/12/24 08:15:20;;;;;;;;;25.40;23.80;;;;;;;;5194310;28;9458;-75
2022/12/24 08:17:51;;;;;;;;;16.25;16.00;;;;;;;;5193821;28;8933;-74
2022/12/24 08:20:22;;;;;;;;;16.40;16.40;;;;;;;;5210759;28;8783;-73
2022/12/24 08:22:53;;;;;;;;;14.80;14.80;;;;;;;;5194447;28;8908;-74
2022/12/24 08:25:24;;;;;;;;;13.40;12.60;;;;;;;;5194856;28;8799;-79
2022/12/24 08:27:56;;;;;;;;;11.40;11.40;;;;;;;;5230398;28;8771;-76
2022/12/24 08:30:27;;;;;;;;;10.20;10.20;;;;;;;;5199244;28;8802;-75
2022/12/24 08:32:57;;;;;;;;;14.00;13.25;;;;;;;;5211181;28;8775;-75
2022/12/24 08:35:28;;;;;;;;;11.75;11.75;;;;;;;;5228242;28;11454;-81
2022/12/24 08:37:59;;;;;;;;;16.00;15.75;;;;;;;;5212954;28;11431;-75
2022/12/24 08:40:49;;;;;;;;;11.60;11.40;;;;;;;;5228056;28;11471;-77
2022/12/24 08:43:20;;;;;;;;;6.00;6.00;;;;;;;;5228085;28;8834;-76
2022/12/24 08:45:51;;;;;;;;;11.80;11.80;;;;;;;;5228299;28;8795;-77
2022/12/24 08:48:22;;;;;;;;;11.20;10.80;;;;;;;;5228285;28;9474;-80
2022/12/24 08:50:53;;;;;;;;;10.00;10.00;;;;;;;;5227833;28;8857;-85
2022/12/24 08:53:24;;;;;;;;;11.50;11.50;;;;;;;;5210285;28;8787;-76
2022/12/24 08:56:00;;;;;;;;;9.75;9.75;;;;;;;;5209412;28;8790;-76
2022/12/24 08:58:31;;;;;;;;;11.00;10.40;;;;;;;;5209848;28;10754;-75
2022/12/24 09:01:09;;;;;;;;;9.80;9.80;;;;;;;;5227642;28;8786;-75
2022/12/24 09:03:40;;;;;;;;;6.40;6.40;;;;;;;;5192992;28;8827;-75
2022/12/24 09:06:12;;;;;;;;;15.40;12.60;;;;;;;;5192819;28;8794;-75
2022/12/24 09:08:43;;;;;;;;;12.80;12.40;;;;;;;;5193054;28;8831;-75
2022/12/24 09:11:15;;;;;;;;;29.00;27.25;;;;;;;;5228007;28;8783;-75
2022/12/24 09:13:46;;;;;;;;;23.60;23.60;;;;;;;;5193220;28;8803;-75
2022/12/24 09:16:17;;;;;;;;;14.20;14.00;;;;;;;;5209762;28;8817;-73
2022/12/24 09:18:48;;;;;;;;;12.00;12.00;;;;;;;;5209921;28;8815;-74
2022/12/24 09:21:19;;;;;;;;;10.00;10.00;;;;;;;;5209024;28;8799;-74
2022/12/24 09:23:49;;;;;;;;;18.00;16.80;;;;;;;;5192904;28;8783;-74
2022/12/24 09:26:23;;;;;;;;;7.80;6.80;;;;;;;;5209318;28;8805;-74
2022/12/24 09:28:54;;;;;;;;;16.60;16.60;;;;;;;;5209151;28;8876;-74
2022/12/24 09:31:25;;;;;;;;;17.40;17.40;;;;;;;;5227121;28;9486;-74
2022/12/24 09:33:56;;;;;;;;;15.60;14.20;;;;;;;;5192874;28;8877;-74
2022/12/24 09:36:37;;;;;;;;;12.40;12.40;;;;;;;;5192400;28;8807;-75
2022/12/24 09:39:12;;;;;;;;;16.00;15.60;;;;;;;;5193337;28;8794;-75
2022/12/24 09:41:44;;;;;;;;;13.20;12.20;;;;;;;;5192636;28;8929;-74
2022/12/24 09:48:46;;;;;;;;;10.40;10.00;;;;;;;;5225997;28;8825;-75
2022/12/24 09:51:27;;;;;;;;;15.60;15.60;;;;;;;;5191702;28;8783;-75
2022/12/24 09:54:01;;;;;;;;;13.40;13.40;;;;;;;;5208697;28;8872;-76
2022/12/24 09:57:00;;;;;;;;;31.40;30.80;;;;;;;;5208602;28;8775;-75
2022/12/24 10:00:22;;;;;;;;;24.20;22.20;;;;;;;;5215476;28;8848;-80
2022/12/24 10:02:53;;;;;;;;;17.40;17.40;;;;;;;;5225677;28;8826;-74
2022/12/24 10:05:39;;;;;;;;;17.60;17.60;;;;;;;;5208863;28;8786;-76
2022/12/24 10:08:10;;;;;;;;;15.20;15.20;;;;;;;;5208643;28;9529;-75
2022/12/24 10:10:46;;;;;;;;;15.40;15.40;;;;;;;;5226284;28;8783;-74
2022/12/24 10:13:23;;;;;;;;;12.40;12.40;;;;;;;;5226176;28;8814;-75
2022/12/24 10:16:06;;;;;;;;;17.40;16.60;;;;;;;;5208772;28;8826;-75
2022/12/24 10:19:00;;;;;;;;;14.40;13.40;;;;;;;;5192189;28;8858;-74
2022/12/24 10:21:49;;;;;;;;;17.60;17.20;;;;;;;;5211859;28;8771;-76
2022/12/24 10:24:23;;;;;;;;;19.00;18.00;;;;;;;;5217070;28;8759;-75
2022/12/24 10:27:05;;;;;;;;;10.40;10.00;;;;;;;;5234472;28;8811;-74
2022/12/24 10:29:39;;;;;;;;;15.20;15.20;;;;;;;;5177007;28;8932;-75
2022/12/24 10:32:30;;;;;;;;;11.40;11.40;;;;;;;;5188577;28;8874;-75
2022/12/24 10:35:01;;;;;;;;;15.00;15.00;;;;;;;;5188241;28;9496;-75
2022/12/24 10:37:33;;;;;;;;;15.60;15.60;;;;;;;;5193399;28;8832;-75
2022/12/24 10:40:05;;;;;;;;;33.00;30.75;;;;;;;;5187542;28;8805;-75
2022/12/24 10:42:41;;;;;;;;;38.00;35.80;;;;;;;;5187723;28;8797;-76
2022/12/24 10:45:16;;;;;;;;;15.60;15.40;;;;;;;;5206427;28;8789;-75
2022/12/24 10:47:50;;;;;;;;;15.20;15.20;;;;;;;;5207057;28;8822;-76
2022/12/24 10:50:29;;;;;;;;;15.20;14.20;;;;;;;;5171090;28;8800;-77
2022/12/24 10:53:20;;;;;;;;;14.60;13.80;;;;;;;;5187811;28;8781;-76
2022/12/24 10:56:10;;;;;;;;;18.20;17.20;;;;;;;;5189090;28;8815;-76
2022/12/24 10:58:45;;;;;;;;;8.20;8.20;;;;;;;;5174656;28;8884;-77
2022/12/24 11:01:16;;;;;;;;;19.60;17.60;;;;;;;;5190927;28;8803;-76
2022/12/24 11:04:08;;;;;;;;;11.00;11.00;;;;;;;;5225051;28;9645;-76
2022/12/24 11:06:53;;;;;;;;;15.20;15.20;;;;;;;;5183388;28;8802;-75
2022/12/24 11:09:26;;;;;;;;;16.00;16.00;;;;;;;;5190114;28;8831;-75
2022/12/24 11:11:58;;;;;;;;;20.60;19.20;;;;;;;;5189353;28;8806;-75
2022/12/24 11:14:33;;;;;;;;;34.60;33.80;;;;;;;;5191684;28;8775;-75
2022/12/24 11:17:04;;;;;;;;;17.40;17.40;;;;;;;;5195222;28;8809;-74
2022/12/24 11:19:38;;;;;;;;;16.20;15.80;;;;;;;;5195526;28;8774;-75
2022/12/24 11:22:30;;;;;;;;;14.20;14.20;;;;;;;;5211212;28;8884;-74
2022/12/24 11:25:03;;;;;;;;;16.00;15.40;;;;;;;;5206868;28;8773;-75
2022/12/24 11:27:39;;;;;;;;;11.40;11.40;;;;;;;;5195134;28;8803;-74
2022/12/24 11:30:17;;;;;;;;;19.00;19.00;;;;;;;;5211602;28;9510;-76
2022/12/24 11:32:50;;;;;;;;;15.80;15.80;;;;;;;;5211295;28;8797;-73
2022/12/24 11:35:22;;;;;;;;;20.20;20.20;;;;;;;;5211171;28;9548;-74
2022/12/24 11:37:59;;;;;;;;;14.80;13.40;;;;;;;;5211002;28;8811;-74
2022/12/24 11:40:40;;;;;;;;;23.40;22.20;;;;;;;;5194627;28;8850;-75
2022/12/24 11:43:19;;;;;;;;;20.20;19.20;;;;;;;;5211560;28;8791;-75
2022/12/24 11:45:54;;;;;;;;;15.80;15.60;;;;;;;;5178377;28;9632;-77
2022/12/24 11:48:30;;;;;;;;;24.20;24.20;;;;;;;;5211854;28;8779;-76
2022/12/24 11:51:05;;;;;;;;;15.00;14.20;;;;;;;;5195522;28;8794;-76
2022/12/24 11:54:03;;;;;;;;;15.80;15.60;;;;;;;;5211310;28;9513;-76
2022/12/24 11:56:46;;;;;;;;;17.20;15.80;;;;;;;;5210488;28;8787;-75
2022/12/24 11:59:32;;;;;;;;;12.00;12.00;;;;;;;;5209923;28;8771;-77
2022/12/24 12:02:03;;;;;;;;;11.20;11.20;;;;;;;;5210880;28;8829;-77
2022/12/24 12:04:35;;;;;;;;;21.80;21.80;;;;;;;;5193408;28;8831;-77
2022/12/24 12:07:19;;;;;;;;;14.80;13.40;;;;;;;;5193849;28;8779;-76
2022/12/24 12:10:01;;;;;;;;;16.80;16.00;;;;;;;;5211399;28;8779;-76
2022/12/24 12:12:39;;;;;;;;;13.80;13.80;;;;;;;;5193975;28;8843;-76
2022/12/24 12:15:18;;;;;;;;;14.60;14.60;;;;;;;;5207908;28;8818;-76
2022/12/24 12:18:08;;;;;;;;;16.80;16.80;;;;;;;;5210412;28;8929;-76
2022/12/24 12:20:41;;;;;;;;;22.00;19.40;;;;;;;;5210806;28;8860;-75
2022/12/24 12:23:57;;;;;;;;;22.60;21.60;;;;;;;;5227637;28;9579;-75
2022/12/24 12:26:29;;;;;;;;;29.80;29.00;;;;;;;;5188443;28;8775;-75
2022/12/24 12:29:03;;;;;;;;;20.00;20.00;;;;;;;;5210418;28;9531;-76
2022/12/24 12:31:54;;;;;;;;;24.60;24.40;;;;;;;;5211709;28;8853;-76
2022/12/24 12:34:39;;;;;;;;;30.00;29.20;;;;;;;;5214801;28;9541;-76
2022/12/24 12:37:13;;;;;;;;;27.80;26.40;;;;;;;;5193241;28;8941;-76
2022/12/24 12:39:44;;;;;;;;;25.00;22.40;;;;;;;;5193479;28;8810;-75
2022/12/24 12:42:15;;;;;;;;;28.20;24.00;;;;;;;;5193067;28;8886;-76
2022/12/24 12:45:05;;;;;;;;;20.25;20.25;;;;;;;;5210110;28;8795;-75
2022/12/24 12:47:39;;;;;;;;;29.40;28.00;;;;;;;;5195421;28;10899;-76
2022/12/24 12:50:19;;;;;;;;;20.00;20.00;;;;;;;;5227553;28;8795;-75
2022/12/24 12:52:50;;;;;;;;;22.00;22.00;;;;;;;;5191900;28;8829;-75
2022/12/24 12:55:41;;;;;;;;;23.60;23.60;;;;;;;;5194541;28;8791;-74
2022/12/24 12:58:21;;;;;;;;;22.00;22.00;;;;;;;;5193162;28;9407;-77
2022/12/24 13:00:56;;;;;;;;;19.40;16.80;;;;;;;;5192820;28;9563;-76
2022/12/24 13:04:03;;;;;;;;;22.00;20.60;;;;;;;;5205209;28;8840;-76
2022/12/24 13:06:57;;;;;;;;;26.60;23.40;;;;;;;;5205634;28;8831;-76
2022/12/24 13:09:40;;;;;;;;;25.00;25.00;;;;;;;;5144169;28;8836;-76
2022/12/24 13:12:17;;;;;;;;;25.60;25.20;;;;;;;;5168921;28;8803;-75
2022/12/24 13:15:05;;;;;;;;;28.40;27.00;;;;;;;;5188730;28;8826;-75
2022/12/24 13:17:45;;;;;;;;;26.80;26.80;;;;;;;;5188380;28;8840;-75
2022/12/24 13:20:39;;;;;;;;;18.00;16.60;;;;;;;;5206208;28;9555;-77
2022/12/24 13:23:29;;;;;;;;;23.00;23.00;;;;;;;;5204880;28;8874;-76
2022/12/24 13:26:18;;;;;;;;;28.60;28.40;;;;;;;;5188787;28;8927;-75
2022/12/24 13:28:49;;;;;;;;;27.60;26.20;;;;;;;;5188863;28;8943;-75
2022/12/24 13:31:23;;;;;;;;;25.60;25.60;;;;;;;;5188679;28;8803;-75
2022/12/24 13:33:55;;;;;;;;;28.00;26.80;;;;;;;;5188206;28;8967;-76
2022/12/24 13:36:46;;;;;;;;;23.60;21.00;;;;;;;;5171708;28;8808;-76
2022/12/24 13:39:18;;;;;;;;;26.60;24.40;;;;;;;;5205080;28;8797;-75
2022/12/24 13:41:49;;;;;;;;;31.80;30.00;;;;;;;;5187743;28;8968;-75
2022/12/24 13:44:24;;;;;;;;;27.20;27.20;;;;;;;;5188084;28;8870;-75
2022/12/24 13:46:58;;;;;;;;;28.40;27.00;;;;;;;;5204409;28;8843;-76
2022/12/24 13:49:31;;;;;;;;;28.40;27.20;;;;;;;;5186439;28;8810;-76
2022/12/24 13:52:23;;;;;;;;;29.20;29.00;;;;;;;;5206414;28;8809;-76
2022/12/24 13:54:54;;;;;;;;;21.80;21.80;;;;;;;;5225190;28;8818;-74
2022/12/24 13:57:25;;;;;;;;;24.60;22.20;;;;;;;;5208442;28;8837;-76
2022/12/24 13:59:58;;;;;;;;;27.25;26.25;;;;;;;;5224993;28;8769;-75
2022/12/24 14:02:32;;;;;;;;;21.80;20.80;;;;;;;;5219015;28;8834;-75
2022/12/24 14:05:07;;;;;;;;;58.80;50.20;;;;;;;;5192143;28;8782;-76
2022/12/24 14:07:43;;;;;;;;;26.20;25.60;;;;;;;;5192147;28;8803;-75
2022/12/24 14:10:22;;;;;;;;;21.20;21.20;;;;;;;;5209104;28;8809;-76
2022/12/24 14:12:53;;;;;;;;;20.80;20.60;;;;;;;;5192188;28;9518;-76
2022/12/24 14:15:44;;;;;;;;;22.40;22.40;;;;;;;;5205513;28;9550;-76
2022/12/24 14:18:20;;;;;;;;;20.20;20.00;;;;;;;;5190188;28;8826;-77
2022/12/24 14:20:53;;;;;;;;;23.20;22.80;;;;;;;;5190863;28;8811;-77
2022/12/24 14:23:34;;;;;;;;;21.60;21.60;;;;;;;;5191567;28;8957;-75
2022/12/24 14:26:10;;;;;;;;;24.00;24.00;;;;;;;;5190499;28;9514;-77
2022/12/24 14:29:08;;;;;;;;;16.80;16.20;;;;;;;;5174130;28;8841;-76
2022/12/24 14:31:48;;;;;;;;;21.80;21.20;;;;;;;;5222459;28;8782;-76
2022/12/24 14:34:19;;;;;;;;;22.20;21.20;;;;;;;;5208911;28;9534;-78
2022/12/24 14:36:53;;;;;;;;;13.80;12.60;;;;;;;;5209042;28;8825;-76
2022/12/24 14:39:27;;;;;;;;;23.80;23.80;;;;;;;;5206514;28;8810;-78
2022/12/24 14:42:08;;;;;;;;;30.20;27.80;;;;;;;;5192041;28;8821;-78
2022/12/24 14:45:16;;;;;;;;;20.60;19.80;;;;;;;;5209424;28;8806;-76
2022/12/24 14:48:05;;;;;;;;;24.00;23.80;;;;;;;;5207634;28;8779;-75
2022/12/24 14:50:39;;;;;;;;;28.00;28.00;;;;;;;;5208063;28;8810;-80
2022/12/24 14:53:19;;;;;;;;;24.00;23.60;;;;;;;;5187880;28;8820;-78
2022/12/24 14:55:50;;;;;;;;;79.80;61.60;;;;;;;;5169626;28;8790;-78
2022/12/24 14:58:26;;;;;;;;;18.75;18.25;;;;;;;;5191157;28;8823;-77
2022/12/24 15:01:01;;;;;;;;;21.20;21.20;;;;;;;;5175199;28;9510;-78
2022/12/24 15:03:32;;;;;;;;;21.60;21.60;;;;;;;;5174553;28;8950;-76
2022/12/24 15:06:05;;;;;;;;;23.20;23.00;;;;;;;;5207561;28;8917;-75
2022/12/24 15:08:38;;;;;;;;;21.00;21.00;;;;;;;;5190812;28;8814;-76
2022/12/24 15:11:13;;;;;;;;;12.00;11.20;;;;;;;;5225520;28;8763;-76
2022/12/24 15:13:52;;;;;;;;;13.00;13.00;;;;;;;;5207682;28;8795;-76
2022/12/24 15:16:55;;;;;;;;;20.25;19.50;;;;;;;;5194668;28;8794;-76
2022/12/24 15:19:29;;;;;;;;;22.60;22.00;;;;;;;;5191382;28;8801;-76
2022/12/24 15:22:01;;;;;;;;;25.20;25.20;;;;;;;;5207697;28;8806;-76
2022/12/24 15:24:36;;;;;;;;;25.20;24.40;;;;;;;;5207762;28;8782;-76
2022/12/24 15:27:14;;;;;;;;;33.00;30.80;;;;;;;;5207794;28;8778;-76
2022/12/24 15:29:47;;;;;;;;;29.40;29.40;;;;;;;;5208037;28;9559;-76
2022/12/24 15:32:19;;;;;;;;;42.80;37.40;;;;;;;;5190746;28;8878;-77
2022/12/24 15:34:52;;;;;;;;;36.00;31.20;;;;;;;;5190899;28;8795;-77
2022/12/24 15:37:28;;;;;;;;;26.00;25.60;;;;;;;;5190337;28;8842;-77
2022/12/24 15:40:10;;;;;;;;;19.80;19.40;;;;;;;;5189853;28;8811;-76
2022/12/24 15:42:41;;;;;;;;;40.20;38.40;;;;;;;;5225233;28;9501;-77
2022/12/24 15:45:12;;;;;;;;;19.00;18.80;;;;;;;;5170120;28;9335;-76